sensor_id;sensor_type;location;lat;lon;timestamp;temperature;humidity
38568;DHT22;24338;48.280;10.970;2022-12-07T00:01:33;2.20;99.90
38568;DHT22;24338;48.280;10.970;2022-12-07T00:04:02;2.20;99.90
38568;DHT22;24338;48.280;10.970;2022-12-07T00:06:40;2.20;99.90
38568;DHT22;24338;48.280;10.970;2022-12-07T00:09:10;2.20;99.90
38568;DHT22;24338;48.280;10.970;2022-12-07T00:11:38;2.20;99.90
38568;DHT22;24338;48.280;10.970;2022-12-07T00:14:07;2.20;99.90
38568;DHT22;24338;48.280;10.970;2022-12-07T00:16:35;2.20;99.90
38568;DHT22;24338;48.280;10.970;2022-12-07T00:19:03;2.20;99.90
38568;DHT22;24338;48.280;10.970;2022-12-07T00:21:32;2.20;99.90
38568;DHT22;24338;48.280;10.970;2022-12-07T00:24:00;2.20;99.90
38568;DHT22;24338;48.280;10.970;2022-12-07T00:26:38;2.20;99.90
38568;DHT22;24338;48.280;10.970;2022-12-07T00:29:09;2.20;99.90
38568;DHT22;24338;48.280;10.970;2022-12-07T00:31:38;2.20;99.90
38568;DHT22;24338;48.280;10.970;2022-12-07T00:34:06;2.20;99.90
38568;DHT22;24338;48.280;10.970;2022-12-07T00:36:33;2.20;99.90
38568;DHT22;24338;48.280;10.970;2022-12-07T00:39:00;2.20;99.90
38568;DHT22;24338;48.280;10.970;2022-12-07T00:41:29;2.20;99.90
38568;DHT22;24338;48.280;10.970;2022-12-07T00:43:57;2.20;99.90
38568;DHT22;24338;48.280;10.970;2022-12-07T00:46:24;2.20;99.90
38568;DHT22;24338;48.280;10.970;2022-12-07T00:48:52;2.20;99.90
38568;DHT22;24338;48.280;10.970;2022-12-07T00:51:21;2.20;99.90
38568;DHT22;24338;48.280;10.970;2022-12-07T00:53:49;2.20;99.90
38568;DHT22;24338;48.280;10.970;2022-12-07T00:56:24;2.20;99.90
38568;DHT22;24338;48.280;10.970;2022-12-07T00:58:57;2.20;99.90
38568;DHT22;24338;48.280;10.970;2022-12-07T01:01:26;2.10;99.90
38568;DHT22;24338;48.280;10.970;2022-12-07T01:03:53;2.20;99.90
38568;DHT22;24338;48.280;10.970;2022-12-07T01:06:21;2.10;99.90
38568;DHT22;24338;48.280;10.970;2022-12-07T01:08:49;2.10;99.90
38568;DHT22;24338;48.280;10.970;2022-12-07T01:11:19;2.10;99.90
38568;DHT22;24338;48.280;10.970;2022-12-07T01:13:46;2.10;99.90
38568;DHT22;24338;48.280;10.970;2022-12-07T01:16:15;2.10;99.90
38568;DHT22;24338;48.280;10.970;2022-12-07T01:18:45;2.10;99.90
38568;DHT22;24338;48.280;10.970;2022-12-07T01:21:18;2.10;99.90
38568;DHT22;24338;48.280;10.970;2022-12-07T01:23:47;2.10;99.90
38568;DHT22;24338;48.280;10.970;2022-12-07T01:26:17;2.10;99.90
38568;DHT22;24338;48.280;10.970;2022-12-07T01:28:45;2.00;99.90
38568;DHT22;24338;48.280;10.970;2022-12-07T01:31:14;2.10;99.90
38568;DHT22;24338;48.280;10.970;2022-12-07T01:33:46;2.00;99.90
38568;DHT22;24338;48.280;10.970;2022-12-07T01:36:18;2.00;99.90
38568;DHT22;24338;48.280;10.970;2022-12-07T01:38:47;2.00;99.90
38568;DHT22;24338;48.280;10.970;2022-12-07T01:41:15;2.00;99.90
38568;DHT22;24338;48.280;10.970;2022-12-07T01:44:12;2.00;99.90
38568;DHT22;24338;48.280;10.970;2022-12-07T01:46:40;2.00;99.90
38568;DHT22;24338;48.280;10.970;2022-12-07T01:49:12;2.00;99.90
38568;DHT22;24338;48.280;10.970;2022-12-07T01:51:42;2.00;99.90
38568;DHT22;24338;48.280;10.970;2022-12-07T01:54:11;2.00;99.90
38568;DHT22;24338;48.280;10.970;2022-12-07T01:56:41;2.00;99.90
38568;DHT22;24338;48.280;10.970;2022-12-07T01:59:09;2.00;99.90
38568;DHT22;24338;48.280;10.970;2022-12-07T02:01:36;2.00;99.90
38568;DHT22;24338;48.280;10.970;2022-12-07T02:04:04;2.00;99.90
38568;DHT22;24338;48.280;10.970;2022-12-07T02:06:32;2.00;99.90
38568;DHT22;24338;48.280;10.970;2022-12-07T02:09:00;2.00;99.90
38568;DHT22;24338;48.280;10.970;2022-12-07T02:11:27;2.00;99.90
38568;DHT22;24338;48.280;10.970;2022-12-07T02:13:54;2.00;99.90
38568;DHT22;24338;48.280;10.970;2022-12-07T02:21:56;2.00;99.90
38568;DHT22;24338;48.280;10.970;2022-12-07T02:28:17;2.00;99.90
38568;DHT22;24338;48.280;10.970;2022-12-07T02:30:28;2.00;99.90
38568;DHT22;24338;48.280;10.970;2022-12-07T02:33:08;1.90;99.90
38568;DHT22;24338;48.280;10.970;2022-12-07T02:38:49;1.90;99.90
38568;DHT22;24338;48.280;10.970;2022-12-07T02:43:54;1.90;99.90
38568;DHT22;24338;48.280;10.970;2022-12-07T02:46:30;1.90;99.90
38568;DHT22;24338;48.280;10.970;2022-12-07T02:48:58;1.90;99.90
38568;DHT22;24338;48.280;10.970;2022-12-07T02:51:30;1.90;99.90
38568;DHT22;24338;48.280;10.970;2022-12-07T02:53:58;1.90;99.90
38568;DHT22;24338;48.280;10.970;2022-12-07T02:56:39;1.90;99.90
38568;DHT22;24338;48.280;10.970;2022-12-07T02:59:29;1.90;99.90
38568;DHT22;24338;48.280;10.970;2022-12-07T03:12:38;1.90;99.90
38568;DHT22;24338;48.280;10.970;2022-12-07T03:15:46;1.90;99.90
38568;DHT22;24338;48.280;10.970;2022-12-07T03:18:17;1.90;99.90
38568;DHT22;24338;48.280;10.970;2022-12-07T03:20:46;1.90;99.90
38568;DHT22;24338;48.280;10.970;2022-12-07T03:23:18;1.90;99.90
38568;DHT22;24338;48.280;10.970;2022-12-07T03:25:48;1.90;99.90
38568;DHT22;24338;48.280;10.970;2022-12-07T03:28:26;1.90;99.90
38568;DHT22;24338;48.280;10.970;2022-12-07T03:31:43;1.90;99.90
38568;DHT22;24338;48.280;10.970;2022-12-07T03:36:25;1.90;99.90
38568;DHT22;24338;48.280;10.970;2022-12-07T03:39:53;1.90;99.90
38568;DHT22;24338;48.280;10.970;2022-12-07T03:41:51;1.90;99.90
38568;DHT22;24338;48.280;10.970;2022-12-07T03:44:20;1.90;99.90
38568;DHT22;24338;48.280;10.970;2022-12-07T03:49:43;1.90;99.90
38568;DHT22;24338;48.280;10.970;2022-12-07T03:54:55;1.90;99.90
38568;DHT22;24338;48.280;10.970;2022-12-07T03:57:25;1.90;99.90
38568;DHT22;24338;48.280;10.970;2022-12-07T03:59:54;1.90;99.90
38568;DHT22;24338;48.280;10.970;2022-12-07T04:02:23;1.80;99.90
38568;DHT22;24338;48.280;10.970;2022-12-07T04:04:52;1.80;99.90
38568;DHT22;24338;48.280;10.970;2022-12-07T04:07:19;1.80;99.90
38568;DHT22;24338;48.280;10.970;2022-12-07T04:09:45;1.80;99.90
38568;DHT22;24338;48.280;10.970;2022-12-07T04:12:12;1.80;99.90
38568;DHT22;24338;48.280;10.970;2022-12-07T04:14:39;1.80;99.90
38568;DHT22;24338;48.280;10.970;2022-12-07T04:17:06;1.80;99.90
38568;DHT22;24338;48.280;10.970;2022-12-07T04:19:34;1.80;99.90
38568;DHT22;24338;48.280;10.970;2022-12-07T04:22:02;1.80;99.90
38568;DHT22;24338;48.280;10.970;2022-12-07T04:24:30;1.80;99.90
38568;DHT22;24338;48.280;10.970;2022-12-07T04:26:57;1.80;99.90
38568;DHT22;24338;48.280;10.970;2022-12-07T04:29:25;1.80;99.90
38568;DHT22;24338;48.280;10.970;2022-12-07T04:31:52;1.80;99.90
38568;DHT22;24338;48.280;10.970;2022-12-07T04:34:19;1.70;99.90
38568;DHT22;24338;48.280;10.970;2022-12-07T04:36:47;1.70;99.90
38568;DHT22;24338;48.280;10.970;2022-12-07T04:39:20;1.70;99.90
38568;DHT22;24338;48.280;10.970;2022-12-07T04:41:47;1.70;99.90
38568;DHT22;24338;48.280;10.970;2022-12-07T04:44:15;1.70;99.90
38568;DHT22;24338;48.280;10.970;2022-12-07T04:46:42;1.70;99.90
38568;DHT22;24338;48.280;10.970;2022-12-07T04:49:10;1.70;99.90
38568;DHT22;24338;48.280;10.970;2022-12-07T04:51:37;1.70;99.90
38568;DHT22;24338;48.280;10.970;2022-12-07T04:54:05;1.70;99.90
38568;DHT22;24338;48.280;10.970;2022-12-07T04:56:32;1.70;99.90
38568;DHT22;24338;48.280;10.970;2022-12-07T04:58:59;1.70;99.90
38568;DHT22;24338;48.280;10.970;2022-12-07T05:01:26;1.70;99.90
38568;DHT22;24338;48.280;10.970;2022-12-07T05:03:53;1.70;99.90
38568;DHT22;24338;48.280;10.970;2022-12-07T05:06:20;1.70;99.90
38568;DHT22;24338;48.280;10.970;2022-12-07T05:08:47;1.70;99.90
38568;DHT22;24338;48.280;10.970;2022-12-07T05:11:14;1.70;99.90
38568;DHT22;24338;48.280;10.970;2022-12-07T05:16:36;1.70;99.90
38568;DHT22;24338;48.280;10.970;2022-12-07T05:19:03;1.70;99.90
38568;DHT22;24338;48.280;10.970;2022-12-07T05:21:30;1.70;99.90
38568;DHT22;24338;48.280;10.970;2022-12-07T05:23:57;1.70;99.90
38568;DHT22;24338;48.280;10.970;2022-12-07T05:26:24;1.70;99.90
38568;DHT22;24338;48.280;10.970;2022-12-07T05:28:52;1.70;99.90
38568;DHT22;24338;48.280;10.970;2022-12-07T05:31:20;1.70;99.90
38568;DHT22;24338;48.280;10.970;2022-12-07T05:33:47;1.70;99.90
38568;DHT22;24338;48.280;10.970;2022-12-07T05:36:15;1.70;99.90
38568;DHT22;24338;48.280;10.970;2022-12-07T05:38:41;1.70;99.90
38568;DHT22;24338;48.280;10.970;2022-12-07T05:41:09;1.70;99.90
38568;DHT22;24338;48.280;10.970;2022-12-07T05:43:58;1.70;99.90
38568;DHT22;24338;48.280;10.970;2022-12-07T05:46:26;1.70;99.90
38568;DHT22;24338;48.280;10.970;2022-12-07T05:48:53;1.60;99.90
38568;DHT22;24338;48.280;10.970;2022-12-07T05:51:20;1.70;99.90
38568;DHT22;24338;48.280;10.970;2022-12-07T05:53:47;1.60;99.90
38568;DHT22;24338;48.280;10.970;2022-12-07T05:56:14;1.60;99.90
38568;DHT22;24338;48.280;10.970;2022-12-07T05:58:40;1.60;99.90
38568;DHT22;24338;48.280;10.970;2022-12-07T06:01:26;1.60;99.90
38568;DHT22;24338;48.280;10.970;2022-12-07T06:03:53;1.60;99.90
38568;DHT22;24338;48.280;10.970;2022-12-07T06:06:20;1.60;99.90
38568;DHT22;24338;48.280;10.970;2022-12-07T06:08:47;1.60;99.90
38568;DHT22;24338;48.280;10.970;2022-12-07T06:11:14;1.60;99.90
38568;DHT22;24338;48.280;10.970;2022-12-07T06:13:59;1.60;99.90
38568;DHT22;24338;48.280;10.970;2022-12-07T06:16:26;1.60;99.90
38568;DHT22;24338;48.280;10.970;2022-12-07T06:18:53;1.60;99.90
38568;DHT22;24338;48.280;10.970;2022-12-07T06:21:20;1.60;99.90
38568;DHT22;24338;48.280;10.970;2022-12-07T06:23:47;1.60;99.90
38568;DHT22;24338;48.280;10.970;2022-12-07T06:26:14;1.60;99.90
38568;DHT22;24338;48.280;10.970;2022-12-07T06:28:41;1.60;99.90
38568;DHT22;24338;48.280;10.970;2022-12-07T06:31:09;1.50;99.90
38568;DHT22;24338;48.280;10.970;2022-12-07T06:33:40;1.50;99.90
38568;DHT22;24338;48.280;10.970;2022-12-07T06:36:07;1.60;99.90
38568;DHT22;24338;48.280;10.970;2022-12-07T06:38:34;1.50;99.90
38568;DHT22;24338;48.280;10.970;2022-12-07T06:41:01;1.50;99.90
38568;DHT22;24338;48.280;10.970;2022-12-07T06:43:29;1.50;99.90
38568;DHT22;24338;48.280;10.970;2022-12-07T06:45:56;1.50;99.90
38568;DHT22;24338;48.280;10.970;2022-12-07T06:48:23;1.50;99.90
38568;DHT22;24338;48.280;10.970;2022-12-07T06:50:50;1.50;99.90
38568;DHT22;24338;48.280;10.970;2022-12-07T06:53:21;1.50;99.90
38568;DHT22;24338;48.280;10.970;2022-12-07T06:55:48;1.50;99.90
38568;DHT22;24338;48.280;10.970;2022-12-07T06:58:16;1.50;99.90
38568;DHT22;24338;48.280;10.970;2022-12-07T07:00:43;1.50;99.90
38568;DHT22;24338;48.280;10.970;2022-12-07T07:03:10;1.50;99.90
38568;DHT22;24338;48.280;10.970;2022-12-07T07:05:37;1.50;99.90
38568;DHT22;24338;48.280;10.970;2022-12-07T07:08:04;1.50;99.90
38568;DHT22;24338;48.280;10.970;2022-12-07T07:10:49;1.40;99.90
38568;DHT22;24338;48.280;10.970;2022-12-07T07:13:16;1.40;99.90
38568;DHT22;24338;48.280;10.970;2022-12-07T07:15:43;1.40;99.90
38568;DHT22;24338;48.280;10.970;2022-12-07T07:18:10;1.40;99.90
38568;DHT22;24338;48.280;10.970;2022-12-07T07:20:37;1.40;99.90
38568;DHT22;24338;48.280;10.970;2022-12-07T07:23:04;1.40;99.90
38568;DHT22;24338;48.280;10.970;2022-12-07T07:25:31;1.40;99.90
38568;DHT22;24338;48.280;10.970;2022-12-07T07:27:59;1.40;99.90
38568;DHT22;24338;48.280;10.970;2022-12-07T07:30:26;1.40;99.90
38568;DHT22;24338;48.280;10.970;2022-12-07T07:32:58;1.50;99.90
38568;DHT22;24338;48.280;10.970;2022-12-07T07:35:26;1.50;99.90
38568;DHT22;24338;48.280;10.970;2022-12-07T07:37:53;1.50;99.90
38568;DHT22;24338;48.280;10.970;2022-12-07T07:40:20;1.50;99.90
38568;DHT22;24338;48.280;10.970;2022-12-07T07:42:54;1.50;99.90
38568;DHT22;24338;48.280;10.970;2022-12-07T07:45:22;1.50;99.90
38568;DHT22;24338;48.280;10.970;2022-12-07T07:47:49;1.50;99.90
38568;DHT22;24338;48.280;10.970;2022-12-07T07:50:17;1.40;99.90
38568;DHT22;24338;48.280;10.970;2022-12-07T07:52:45;1.40;99.90
38568;DHT22;24338;48.280;10.970;2022-12-07T07:55:12;1.40;99.90
38568;DHT22;24338;48.280;10.970;2022-12-07T07:57:40;1.50;99.90
38568;DHT22;24338;48.280;10.970;2022-12-07T08:00:12;1.40;99.90
38568;DHT22;24338;48.280;10.970;2022-12-07T08:02:40;1.50;99.90
38568;DHT22;24338;48.280;10.970;2022-12-07T08:05:07;1.50;99.90
38568;DHT22;24338;48.280;10.970;2022-12-07T08:07:34;1.60;99.90
38568;DHT22;24338;48.280;10.970;2022-12-07T08:10:01;1.60;99.90
38568;DHT22;24338;48.280;10.970;2022-12-07T08:12:29;1.60;99.90
38568;DHT22;24338;48.280;10.970;2022-12-07T08:14:55;1.60;99.90
38568;DHT22;24338;48.280;10.970;2022-12-07T08:17:22;1.60;99.90
38568;DHT22;24338;48.280;10.970;2022-12-07T08:19:49;1.70;99.90
38568;DHT22;24338;48.280;10.970;2022-12-07T08:22:16;1.70;99.90
38568;DHT22;24338;48.280;10.970;2022-12-07T08:24:43;1.70;99.90
38568;DHT22;24338;48.280;10.970;2022-12-07T08:27:10;1.70;99.90
38568;DHT22;24338;48.280;10.970;2022-12-07T08:29:37;1.70;99.90
38568;DHT22;24338;48.280;10.970;2022-12-07T08:32:04;1.80;99.90
38568;DHT22;24338;48.280;10.970;2022-12-07T08:34:35;1.80;99.90
38568;DHT22;24338;48.280;10.970;2022-12-07T08:37:02;1.90;99.90
38568;DHT22;24338;48.280;10.970;2022-12-07T08:39:29;1.90;99.90
38568;DHT22;24338;48.280;10.970;2022-12-07T08:41:58;1.90;99.90
38568;DHT22;24338;48.280;10.970;2022-12-07T08:44:25;2.00;99.90
38568;DHT22;24338;48.280;10.970;2022-12-07T08:47:00;2.00;99.90
38568;DHT22;24338;48.280;10.970;2022-12-07T08:49:41;2.00;99.90
38568;DHT22;24338;48.280;10.970;2022-12-07T08:52:09;2.10;99.90
38568;DHT22;24338;48.280;10.970;2022-12-07T08:54:38;2.10;99.90
38568;DHT22;24338;48.280;10.970;2022-12-07T08:57:06;2.00;99.90
38568;DHT22;24338;48.280;10.970;2022-12-07T08:59:35;2.00;99.90
38568;DHT22;24338;48.280;10.970;2022-12-07T09:02:03;2.00;99.90
38568;DHT22;24338;48.280;10.970;2022-12-07T09:04:31;1.90;99.90
38568;DHT22;24338;48.280;10.970;2022-12-07T09:06:59;1.90;99.90
38568;DHT22;24338;48.280;10.970;2022-12-07T09:09:26;1.90;99.90
38568;DHT22;24338;48.280;10.970;2022-12-07T09:11:53;1.90;99.90
38568;DHT22;24338;48.280;10.970;2022-12-07T09:16:48;1.90;99.90
38568;DHT22;24338;48.280;10.970;2022-12-07T09:19:15;1.90;99.90
38568;DHT22;24338;48.280;10.970;2022-12-07T09:21:42;1.90;99.90
38568;DHT22;24338;48.280;10.970;2022-12-07T09:24:09;1.90;99.90
38568;DHT22;24338;48.280;10.970;2022-12-07T09:26:37;2.00;99.90
38568;DHT22;24338;48.280;10.970;2022-12-07T09:29:06;2.00;99.90
38568;DHT22;24338;48.280;10.970;2022-12-07T09:31:33;2.00;99.90
38568;DHT22;24338;48.280;10.970;2022-12-07T09:34:02;2.10;99.90
38568;DHT22;24338;48.280;10.970;2022-12-07T09:36:29;2.10;99.90
38568;DHT22;24338;48.280;10.970;2022-12-07T09:38:56;2.10;99.90
38568;DHT22;24338;48.280;10.970;2022-12-07T09:41:24;2.20;99.90
38568;DHT22;24338;48.280;10.970;2022-12-07T09:43:53;2.30;99.90
38568;DHT22;24338;48.280;10.970;2022-12-07T09:46:23;2.40;99.90
38568;DHT22;24338;48.280;10.970;2022-12-07T09:48:50;2.40;99.90
38568;DHT22;24338;48.280;10.970;2022-12-07T09:51:20;2.50;99.90
38568;DHT22;24338;48.280;10.970;2022-12-07T09:53:52;2.50;99.90
38568;DHT22;24338;48.280;10.970;2022-12-07T09:56:20;2.40;99.90
38568;DHT22;24338;48.280;10.970;2022-12-07T09:58:48;2.50;99.90
38568;DHT22;24338;48.280;10.970;2022-12-07T10:01:18;2.50;99.90
38568;DHT22;24338;48.280;10.970;2022-12-07T10:03:52;2.50;99.90
38568;DHT22;24338;48.280;10.970;2022-12-07T10:08:53;2.40;99.90
38568;DHT22;24338;48.280;10.970;2022-12-07T10:11:20;2.50;99.90
38568;DHT22;24338;48.280;10.970;2022-12-07T10:13:52;2.60;99.90
38568;DHT22;24338;48.280;10.970;2022-12-07T10:16:37;2.70;99.90
38568;DHT22;24338;48.280;10.970;2022-12-07T10:22:15;2.70;99.90
38568;DHT22;24338;48.280;10.970;2022-12-07T10:24:46;2.80;99.90
38568;DHT22;24338;48.280;10.970;2022-12-07T10:27:31;2.80;99.90
38568;DHT22;24338;48.280;10.970;2022-12-07T10:29:59;2.90;99.90
38568;DHT22;24338;48.280;10.970;2022-12-07T10:32:33;3.10;99.90
38568;DHT22;24338;48.280;10.970;2022-12-07T10:35:25;3.30;99.90
38568;DHT22;24338;48.280;10.970;2022-12-07T10:37:57;3.50;99.90
38568;DHT22;24338;48.280;10.970;2022-12-07T10:40:35;3.70;99.90
38568;DHT22;24338;48.280;10.970;2022-12-07T10:43:18;3.90;99.90
38568;DHT22;24338;48.280;10.970;2022-12-07T10:46:21;3.90;99.90
38568;DHT22;24338;48.280;10.970;2022-12-07T10:57:07;4.40;99.90
38568;DHT22;24338;48.280;10.970;2022-12-07T11:05:23;4.50;99.90
38568;DHT22;24338;48.280;10.970;2022-12-07T11:14:01;4.30;99.90
38568;DHT22;24338;48.280;10.970;2022-12-07T11:22:51;4.60;99.90
38568;DHT22;24338;48.280;10.970;2022-12-07T11:25:44;4.70;99.90
38568;DHT22;24338;48.280;10.970;2022-12-07T11:31:29;4.70;99.90
38568;DHT22;24338;48.280;10.970;2022-12-07T11:36:43;4.70;99.90
38568;DHT22;24338;48.280;10.970;2022-12-07T11:39:28;4.70;99.90
38568;DHT22;24338;48.280;10.970;2022-12-07T11:42:03;4.70;99.90
38568;DHT22;24338;48.280;10.970;2022-12-07T11:44:36;4.80;99.90
38568;DHT22;24338;48.280;10.970;2022-12-07T11:47:13;4.90;99.90
38568;DHT22;24338;48.280;10.970;2022-12-07T11:52:25;5.30;99.90
38568;DHT22;24338;48.280;10.970;2022-12-07T11:54:54;5.50;99.90
38568;DHT22;24338;48.280;10.970;2022-12-07T11:57:44;5.70;99.90
38568;DHT22;24338;48.280;10.970;2022-12-07T12:00:16;5.80;99.90
38568;DHT22;24338;48.280;10.970;2022-12-07T12:02:52;5.90;99.90
38568;DHT22;24338;48.280;10.970;2022-12-07T12:05:24;6.00;99.90
38568;DHT22;24338;48.280;10.970;2022-12-07T12:22:27;5.70;99.90
38568;DHT22;24338;48.280;10.970;2022-12-07T12:24:57;5.50;99.90
38568;DHT22;24338;48.280;10.970;2022-12-07T12:27:33;5.50;99.90
38568;DHT22;24338;48.280;10.970;2022-12-07T12:30:06;5.40;99.90
38568;DHT22;24338;48.280;10.970;2022-12-07T12:32:41;5.30;99.90
38568;DHT22;24338;48.280;10.970;2022-12-07T12:36:05;5.10;99.90
38568;DHT22;24338;48.280;10.970;2022-12-07T12:38:48;5.10;99.90
38568;DHT22;24338;48.280;10.970;2022-12-07T12:46:56;5.00;99.90
38568;DHT22;24338;48.280;10.970;2022-12-07T12:49:36;5.00;99.90
38568;DHT22;24338;48.280;10.970;2022-12-07T12:57:36;4.90;99.90
38568;DHT22;24338;48.280;10.970;2022-12-07T13:00:23;4.90;99.90
38568;DHT22;24338;48.280;10.970;2022-12-07T13:02:53;4.90;99.90
38568;DHT22;24338;48.280;10.970;2022-12-07T13:05:26;4.90;99.90
38568;DHT22;24338;48.280;10.970;2022-12-07T13:18:00;4.60;99.90
38568;DHT22;24338;48.280;10.970;2022-12-07T13:20:47;4.70;99.90
38568;DHT22;24338;48.280;10.970;2022-12-07T13:23:18;4.60;99.90
38568;DHT22;24338;48.280;10.970;2022-12-07T13:29:18;4.60;99.90
38568;DHT22;24338;48.280;10.970;2022-12-07T13:31:56;4.50;99.90
38568;DHT22;24338;48.280;10.970;2022-12-07T13:34:35;4.50;99.90
38568;DHT22;24338;48.280;10.970;2022-12-07T13:37:18;4.40;99.90
38568;DHT22;24338;48.280;10.970;2022-12-07T13:39:56;4.50;99.90
38568;DHT22;24338;48.280;10.970;2022-12-07T13:44:56;4.60;99.90
38568;DHT22;24338;48.280;10.970;2022-12-07T13:50:23;4.60;99.90
38568;DHT22;24338;48.280;10.970;2022-12-07T13:52:55;4.50;99.90
38568;DHT22;24338;48.280;10.970;2022-12-07T13:55:22;4.50;99.90
38568;DHT22;24338;48.280;10.970;2022-12-07T13:57:51;4.40;99.90
38568;DHT22;24338;48.280;10.970;2022-12-07T14:00:26;4.40;99.90
38568;DHT22;24338;48.280;10.970;2022-12-07T14:03:01;4.30;99.90
38568;DHT22;24338;48.280;10.970;2022-12-07T14:05:30;4.30;99.90
38568;DHT22;24338;48.280;10.970;2022-12-07T14:08:00;4.30;99.90
38568;DHT22;24338;48.280;10.970;2022-12-07T14:10:33;4.30;99.90
38568;DHT22;24338;48.280;10.970;2022-12-07T14:13:01;4.30;99.90
38568;DHT22;24338;48.280;10.970;2022-12-07T14:15:31;4.40;99.90
38568;DHT22;24338;48.280;10.970;2022-12-07T14:17:59;4.40;99.90
38568;DHT22;24338;48.280;10.970;2022-12-07T14:20:40;4.40;99.90
38568;DHT22;24338;48.280;10.970;2022-12-07T14:23:24;4.40;99.90
38568;DHT22;24338;48.280;10.970;2022-12-07T14:25:52;4.40;99.90
38568;DHT22;24338;48.280;10.970;2022-12-07T14:28:31;4.40;99.90
38568;DHT22;24338;48.280;10.970;2022-12-07T14:30:59;4.40;99.90
38568;DHT22;24338;48.280;10.970;2022-12-07T14:33:27;4.30;99.90
38568;DHT22;24338;48.280;10.970;2022-12-07T14:35:54;4.30;99.90
38568;DHT22;24338;48.280;10.970;2022-12-07T14:38:22;4.30;99.90
38568;DHT22;24338;48.280;10.970;2022-12-07T14:40:49;4.20;99.90
38568;DHT22;24338;48.280;10.970;2022-12-07T14:43:17;4.20;99.90
38568;DHT22;24338;48.280;10.970;2022-12-07T14:45:45;4.10;99.90
38568;DHT22;24338;48.280;10.970;2022-12-07T14:48:14;4.10;99.90
38568;DHT22;24338;48.280;10.970;2022-12-07T14:51:01;4.10;99.90
38568;DHT22;24338;48.280;10.970;2022-12-07T14:53:50;4.10;99.90
38568;DHT22;24338;48.280;10.970;2022-12-07T14:56:24;4.00;99.90
38568;DHT22;24338;48.280;10.970;2022-12-07T14:58:51;4.00;99.90
38568;DHT22;24338;48.280;10.970;2022-12-07T15:01:18;4.00;99.90
38568;DHT22;24338;48.280;10.970;2022-12-07T15:03:44;4.00;99.90
38568;DHT22;24338;48.280;10.970;2022-12-07T15:06:17;3.90;99.90
38568;DHT22;24338;48.280;10.970;2022-12-07T15:08:44;3.80;99.90
38568;DHT22;24338;48.280;10.970;2022-12-07T15:11:13;3.80;99.90
38568;DHT22;24338;48.280;10.970;2022-12-07T15:13:40;3.80;99.90
38568;DHT22;24338;48.280;10.970;2022-12-07T15:16:26;3.70;99.90
38568;DHT22;24338;48.280;10.970;2022-12-07T15:18:59;3.60;99.90
38568;DHT22;24338;48.280;10.970;2022-12-07T15:21:45;3.50;99.90
38568;DHT22;24338;48.280;10.970;2022-12-07T15:24:12;3.50;99.90
38568;DHT22;24338;48.280;10.970;2022-12-07T15:26:40;3.40;99.90
38568;DHT22;24338;48.280;10.970;2022-12-07T15:29:08;3.40;99.90
38568;DHT22;24338;48.280;10.970;2022-12-07T15:31:35;3.30;99.90
38568;DHT22;24338;48.280;10.970;2022-12-07T15:34:26;3.20;99.90
38568;DHT22;24338;48.280;10.970;2022-12-07T15:37:03;3.10;99.90
38568;DHT22;24338;48.280;10.970;2022-12-07T15:39:30;3.00;99.90
38568;DHT22;24338;48.280;10.970;2022-12-07T15:41:57;3.00;99.90
38568;DHT22;24338;48.280;10.970;2022-12-07T15:44:24;2.90;99.90
38568;DHT22;24338;48.280;10.970;2022-12-07T15:47:09;2.80;99.90
38568;DHT22;24338;48.280;10.970;2022-12-07T15:49:36;2.80;99.90
38568;DHT22;24338;48.280;10.970;2022-12-07T15:52:03;2.70;99.90
38568;DHT22;24338;48.280;10.970;2022-12-07T15:54:30;2.60;99.90
38568;DHT22;24338;48.280;10.970;2022-12-07T15:56:59;2.60;99.90
38568;DHT22;24338;48.280;10.970;2022-12-07T15:59:27;2.50;99.90
38568;DHT22;24338;48.280;10.970;2022-12-07T16:01:54;2.50;99.90
38568;DHT22;24338;48.280;10.970;2022-12-07T16:04:21;2.50;99.90
38568;DHT22;24338;48.280;10.970;2022-12-07T16:06:48;2.40;99.90
38568;DHT22;24338;48.280;10.970;2022-12-07T16:09:18;2.40;99.90
38568;DHT22;24338;48.280;10.970;2022-12-07T16:11:45;2.30;99.90
38568;DHT22;24338;48.280;10.970;2022-12-07T16:14:13;2.30;99.90
38568;DHT22;24338;48.280;10.970;2022-12-07T16:16:40;2.20;99.90
38568;DHT22;24338;48.280;10.970;2022-12-07T16:19:08;2.10;99.90
38568;DHT22;24338;48.280;10.970;2022-12-07T16:21:35;2.10;99.90
38568;DHT22;24338;48.280;10.970;2022-12-07T16:24:04;2.10;99.90
38568;DHT22;24338;48.280;10.970;2022-12-07T16:26:31;2.00;99.90
38568;DHT22;24338;48.280;10.970;2022-12-07T16:28:58;1.90;99.90
38568;DHT22;24338;48.280;10.970;2022-12-07T16:31:26;1.90;99.90
38568;DHT22;24338;48.280;10.970;2022-12-07T16:33:56;1.80;99.90
38568;DHT22;24338;48.280;10.970;2022-12-07T16:36:24;1.80;99.90
38568;DHT22;24338;48.280;10.970;2022-12-07T16:39:13;1.70;99.90
38568;DHT22;24338;48.280;10.970;2022-12-07T16:41:39;1.70;99.90
38568;DHT22;24338;48.280;10.970;2022-12-07T16:44:09;1.60;99.90
38568;DHT22;24338;48.280;10.970;2022-12-07T16:46:36;1.60;99.90
38568;DHT22;24338;48.280;10.970;2022-12-07T16:49:04;1.50;99.90
38568;DHT22;24338;48.280;10.970;2022-12-07T16:51:31;1.40;99.90
38568;DHT22;24338;48.280;10.970;2022-12-07T16:53:58;1.40;99.90
38568;DHT22;24338;48.280;10.970;2022-12-07T16:56:25;1.30;99.90
38568;DHT22;24338;48.280;10.970;2022-12-07T16:58:53;1.30;99.90
38568;DHT22;24338;48.280;10.970;2022-12-07T17:01:22;1.20;99.90
38568;DHT22;24338;48.280;10.970;2022-12-07T17:03:49;1.20;99.90
38568;DHT22;24338;48.280;10.970;2022-12-07T17:06:18;1.20;99.90
38568;DHT22;24338;48.280;10.970;2022-12-07T17:08:46;1.20;99.90
38568;DHT22;24338;48.280;10.970;2022-12-07T17:11:15;1.20;99.90
38568;DHT22;24338;48.280;10.970;2022-12-07T17:13:43;1.20;99.90
38568;DHT22;24338;48.280;10.970;2022-12-07T17:16:29;1.20;99.90
38568;DHT22;24338;48.280;10.970;2022-12-07T17:18:56;1.20;99.90
38568;DHT22;24338;48.280;10.970;2022-12-07T17:21:24;1.20;99.90
38568;DHT22;24338;48.280;10.970;2022-12-07T17:23:50;1.20;99.90
38568;DHT22;24338;48.280;10.970;2022-12-07T17:26:23;1.20;99.90
38568;DHT22;24338;48.280;10.970;2022-12-07T17:28:56;1.10;99.90
38568;DHT22;24338;48.280;10.970;2022-12-07T17:31:24;1.10;99.90
38568;DHT22;24338;48.280;10.970;2022-12-07T17:33:51;1.00;99.90
38568;DHT22;24338;48.280;10.970;2022-12-07T17:36:24;1.00;99.90
38568;DHT22;24338;48.280;10.970;2022-12-07T17:38:51;1.00;99.90
38568;DHT22;24338;48.280;10.970;2022-12-07T17:41:21;0.90;99.90
38568;DHT22;24338;48.280;10.970;2022-12-07T17:44:09;0.90;99.90
38568;DHT22;24338;48.280;10.970;2022-12-07T17:46:37;0.80;99.90
38568;DHT22;24338;48.280;10.970;2022-12-07T17:49:05;0.80;99.90
38568;DHT22;24338;48.280;10.970;2022-12-07T17:51:32;0.70;99.90
38568;DHT22;24338;48.280;10.970;2022-12-07T17:54:18;0.70;99.90
38568;DHT22;24338;48.280;10.970;2022-12-07T17:56:45;0.60;99.90